Time;durP1;ratioP1;P1;durP2;ratioP2;P2;SDS_P1;SDS_P2;PMS_P1;PMS_P2;Temp;Humidity;BMP_temperature;BMP_pressure;BME280_temperature;BME280_humidity;BME280_pressure;Samples;Min_cycle;Max_cycle;Signal;HPM_P1;HPM_P2
2022/04/11 00:01:33;;;;;;;4.97;2.50;;;1.50;99.90;;;;;;5070546;28;20128;-66
2022/04/11 00:04:01;;;;;;;4.60;2.63;;;1.50;99.90;;;;;;5072574;28;20084;-66
2022/04/11 00:06:27;;;;;;;5.00;3.00;;;1.50;99.90;;;;;;5070880;28;20238;-66
2022/04/11 00:08:55;;;;;;;4.25;2.58;;;1.50;99.90;;;;;;5070717;28;20083;-66
2022/04/11 00:11:22;;;;;;;4.68;2.58;;;1.50;99.90;;;;;;5072082;28;20080;-66
2022/04/11 00:13:50;;;;;;;3.75;2.20;;;1.50;99.90;;;;;;5071425;28;20136;-66
2022/04/11 00:16:16;;;;;;;5.00;2.28;;;1.40;99.90;;;;;;5071629;28;20052;-66
2022/04/11 00:18:43;;;;;;;4.57;2.65;;;1.40;99.90;;;;;;5071105;28;20139;-66
2022/04/11 00:21:10;;;;;;;3.75;2.40;;;1.40;99.90;;;;;;5071107;28;20132;-66
2022/04/11 00:23:37;;;;;;;4.55;2.25;;;1.40;99.90;;;;;;5070637;28;20139;-66
2022/04/11 00:26:05;;;;;;;3.15;2.50;;;1.40;99.90;;;;;;5072040;28;20131;-66
2022/04/11 00:28:32;;;;;;;7.45;2.28;;;1.40;99.90;;;;;;5078552;28;20052;-66
2022/04/11 00:30:58;;;;;;;6.50;2.40;;;1.30;99.90;;;;;;5073422;28;20487;-66
2022/04/11 00:33:25;;;;;;;3.95;2.30;;;1.40;99.90;;;;;;5077303;28;20531;-66
2022/04/11 00:35:52;;;;;;;4.32;2.45;;;1.30;99.90;;;;;;5077669;28;20079;-67
2022/04/11 00:38:19;;;;;;;4.47;1.92;;;1.30;99.90;;;;;;5077509;28;20139;-66
2022/04/11 00:40:45;;;;;;;6.55;2.42;;;1.20;99.90;;;;;;5077571;28;20075;-66
2022/04/11 00:43:32;;;;;;;4.25;2.20;;;1.20;99.90;;;;;;5077876;28;20135;-67
2022/04/11 00:45:59;;;;;;;5.38;2.47;;;1.20;99.90;;;;;;5077857;28;20140;-66
2022/04/11 00:48:26;;;;;;;3.83;2.00;;;1.20;99.90;;;;;;5077867;28;20143;-66
2022/04/11 00:51:01;;;;;;;3.35;2.00;;;1.20;99.90;;;;;;5076829;28;20075;-67
2022/04/11 00:53:29;;;;;;;5.53;2.33;;;1.20;99.90;;;;;;5095814;28;20559;-66
2022/04/11 00:55:57;;;;;;;4.60;2.40;;;1.20;99.90;;;;;;5077199;28;20138;-66
2022/04/11 00:58:25;;;;;;;6.30;2.33;;;1.20;99.90;;;;;;5095183;28;20128;-66
2022/04/11 01:00:53;;;;;;;3.97;2.35;;;1.20;99.90;;;;;;5077599;28;20139;-66
2022/04/11 01:03:21;;;;;;;5.60;2.30;;;1.20;99.90;;;;;;5095348;28;20079;-66
2022/04/11 01:05:48;;;;;;;4.50;2.67;;;1.10;99.90;;;;;;5094694;28;20415;-67
2022/04/11 01:08:15;;;;;;;4.57;2.50;;;1.10;99.90;;;;;;5077140;28;20078;-67
2022/04/11 01:10:42;;;;;;;7.63;2.42;;;1.10;99.90;;;;;;5095187;28;20083;-67
2022/04/11 01:13:09;;;;;;;5.78;2.70;;;1.10;99.90;;;;;;5094687;28;20130;-67
2022/04/11 01:15:36;;;;;;;4.18;2.35;;;1.00;99.90;;;;;;5094828;28;20134;-67
2022/04/11 01:18:05;;;;;;;6.45;2.50;;;1.00;99.90;;;;;;5077443;28;20134;-67
2022/04/11 01:20:32;;;;;;;4.90;2.25;;;1.00;99.90;;;;;;5076163;28;20082;-67
2022/04/11 01:23:00;;;;;;;7.40;2.60;;;1.00;99.90;;;;;;5077260;28;20474;-67
2022/04/11 01:25:27;;;;;;;3.97;2.50;;;1.00;99.90;;;;;;5076585;28;20091;-67
2022/04/11 01:27:55;;;;;;;5.63;2.25;;;1.00;99.90;;;;;;5075889;28;20134;-67
2022/04/11 01:30:21;;;;;;;8.35;2.33;;;1.00;99.90;;;;;;5094600;28;20087;-67
2022/04/11 01:32:48;;;;;;;5.18;2.60;;;1.00;99.90;;;;;;5094057;28;20135;-67
2022/04/11 01:35:20;;;;;;;8.25;2.60;;;1.00;99.90;;;;;;5076980;28;20480;-67
2022/04/11 01:37:46;;;;;;;4.32;2.50;;;1.00;99.90;;;;;;5076219;28;20559;-67
2022/04/11 01:40:15;;;;;;;5.28;2.92;;;1.00;99.90;;;;;;5076262;28;20130;-67
2022/04/11 01:42:42;;;;;;;6.22;2.97;;;1.00;99.90;;;;;;5076108;28;20079;-67
2022/04/11 01:45:10;;;;;;;8.43;3.03;;;1.00;99.90;;;;;;5093935;28;20062;-67
2022/04/11 01:47:38;;;;;;;8.38;2.90;;;1.00;99.90;;;;;;5093978;28;20052;-67
2022/04/11 01:50:05;;;;;;;6.28;3.30;;;1.00;99.90;;;;;;5076298;28;20136;-67
2022/04/11 01:52:32;;;;;;;4.30;2.22;;;0.90;99.90;;;;;;5094247;28;20123;-67
2022/04/11 01:54:59;;;;;;;7.22;3.22;;;1.00;99.90;;;;;;5093611;28;20052;-67
2022/04/11 01:57:27;;;;;;;6.80;3.08;;;1.00;99.90;;;;;;5076694;28;20472;-67
2022/04/11 01:59:54;;;;;;;5.63;2.22;;;1.00;99.90;;;;;;5094423;28;20055;-67
2022/04/11 02:02:21;;;;;;;4.85;2.50;;;1.00;99.90;;;;;;5075405;28;20076;-67
2022/04/11 02:04:47;;;;;;;4.50;2.60;;;1.00;99.90;;;;;;5076240;28;20079;-67
2022/04/11 02:07:14;;;;;;;4.85;2.90;;;1.00;99.90;;;;;;5075706;28;20131;-67
2022/04/11 02:09:41;;;;;;;5.05;2.85;;;0.90;99.90;;;;;;5093362;28;20128;-67
2022/04/11 02:12:08;;;;;;;4.93;2.85;;;1.00;99.90;;;;;;5093983;28;20254;-67
2022/04/11 02:14:37;;;;;;;4.55;2.60;;;0.90;99.90;;;;;;5094431;28;20083;-67
2022/04/11 02:17:04;;;;;;;7.00;2.83;;;0.90;99.90;;;;;;5093433;28;20136;-67
2022/04/11 02:19:31;;;;;;;5.70;2.78;;;0.90;99.90;;;;;;5094104;28;20133;-66
2022/04/11 02:21:57;;;;;;;3.95;2.53;;;1.00;99.90;;;;;;5071591;28;20135;-66
2022/04/11 02:24:24;;;;;;;6.15;2.90;;;0.90;99.90;;;;;;5055586;28;20131;-67
2022/04/11 02:26:51;;;;;;;4.90;2.90;;;0.90;99.90;;;;;;5073385;28;20125;-67
2022/04/11 02:29:18;;;;;;;5.20;3.08;;;1.00;99.90;;;;;;5054896;28;20136;-67
2022/04/11 02:31:46;;;;;;;3.83;2.53;;;0.90;99.90;;;;;;5055553;28;20136;-67
2022/04/11 02:34:13;;;;;;;5.80;2.78;;;1.00;99.90;;;;;;5073479;28;20128;-66
2022/04/11 02:36:39;;;;;;;6.03;3.08;;;0.90;99.90;;;;;;5070014;28;20055;-67
2022/04/11 02:39:06;;;;;;;6.35;3.42;;;0.90;99.90;;;;;;5075734;28;20135;-67
2022/04/11 02:41:33;;;;;;;6.68;3.35;;;0.90;99.90;;;;;;5075633;28;20090;-67
2022/04/11 02:44:00;;;;;;;6.15;2.60;;;0.90;99.90;;;;;;5092928;28;20120;-67
2022/04/11 02:46:27;;;;;;;8.48;3.38;;;0.90;99.90;;;;;;5075525;28;20143;-66
2022/04/11 02:48:55;;;;;;;6.63;2.60;;;0.90;99.90;;;;;;5075605;28;20464;-66
2022/04/11 02:51:22;;;;;;;5.20;2.78;;;0.90;99.90;;;;;;5092450;28;20472;-66
2022/04/11 02:53:48;;;;;;;3.80;2.75;;;0.90;99.90;;;;;;5093428;28;20127;-66
2022/04/11 02:56:15;;;;;;;6.90;3.03;;;0.90;99.90;;;;;;5074789;28;20514;-66
2022/04/11 02:58:42;;;;;;;6.88;2.90;;;0.80;99.90;;;;;;5092654;28;20132;-66
2022/04/11 03:01:09;;;;;;;6.68;3.03;;;0.80;99.90;;;;;;5075269;28;20134;-66
2022/04/11 03:03:37;;;;;;;4.28;3.20;;;0.80;99.90;;;;;;5075431;28;20496;-67
2022/04/11 03:06:05;;;;;;;4.10;2.63;;;0.80;99.90;;;;;;5074113;28;20052;-67
2022/04/11 03:08:32;;;;;;;5.43;3.15;;;0.90;99.90;;;;;;5093308;28;20130;-67
2022/04/11 03:10:59;;;;;;;5.45;2.90;;;0.80;99.90;;;;;;5075279;28;20091;-67
2022/04/11 03:13:26;;;;;;;9.50;3.13;;;0.80;99.90;;;;;;5074871;28;20129;-67
2022/04/11 03:15:53;;;;;;;4.45;2.53;;;0.80;99.90;;;;;;5093009;28;20090;-67
2022/04/11 03:18:19;;;;;;;7.05;3.30;;;0.80;99.90;;;;;;5091987;28;20075;-67
2022/04/11 03:20:47;;;;;;;10.95;3.25;;;0.80;99.90;;;;;;5075467;28;20139;-67
2022/04/11 03:23:16;;;;;;;6.05;3.17;;;0.80;99.90;;;;;;5075327;28;20476;-67
2022/04/11 03:25:43;;;;;;;6.60;3.30;;;0.80;99.90;;;;;;5092228;28;20044;-67
2022/04/11 03:28:09;;;;;;;6.88;3.40;;;0.90;99.90;;;;;;5093078;28;20131;-67
2022/04/11 03:30:36;;;;;;;6.45;2.97;;;0.90;99.90;;;;;;5074956;28;20075;-67
2022/04/11 03:33:03;;;;;;;9.07;4.00;;;1.00;99.90;;;;;;5070465;28;20552;-67
2022/04/11 03:35:30;;;;;;;7.13;2.92;;;1.10;99.90;;;;;;5054703;28;20139;-67
2022/04/11 03:37:57;;;;;;;4.47;3.03;;;1.20;99.90;;;;;;5055136;28;20447;-67
2022/04/11 03:40:25;;;;;;;7.95;3.75;;;1.30;99.90;;;;;;5072265;28;20465;-67
2022/04/11 03:42:52;;;;;;;6.25;3.78;;;1.30;99.90;;;;;;5072705;28;20124;-67
2022/04/11 03:45:18;;;;;;;7.72;4.05;;;1.40;99.90;;;;;;5054624;28;20135;-67
2022/04/11 03:47:45;;;;;;;6.97;3.58;;;1.50;99.90;;;;;;5079676;28;20639;-66
2022/04/11 03:50:12;;;;;;;6.88;3.30;;;1.50;99.90;;;;;;5074861;28;20063;-66
2022/04/11 03:52:39;;;;;;;5.45;3.35;;;1.60;99.90;;;;;;5074686;28;20074;-67
2022/04/11 03:55:06;;;;;;;5.18;3.58;;;1.60;99.90;;;;;;5073774;28;20457;-66
2022/04/11 03:57:35;;;;;;;9.30;3.60;;;1.70;99.90;;;;;;5092677;28;20048;-66
2022/04/11 04:00:02;;;;;;;7.47;3.65;;;1.80;99.90;;;;;;5074789;28;20048;-66
2022/04/11 04:02:29;;;;;;;5.85;3.70;;;1.80;99.90;;;;;;5091876;28;20076;-66
2022/04/11 04:04:55;;;;;;;6.13;3.47;;;1.90;99.90;;;;;;5092787;28;20048;-66
2022/04/11 04:07:22;;;;;;;5.07;3.25;;;2.00;99.90;;;;;;5072051;28;20091;-66
2022/04/11 04:09:49;;;;;;;6.85;3.92;;;2.00;99.90;;;;;;5064725;28;20135;-67
2022/04/11 04:12:19;;;;;;;6.57;3.70;;;2.10;99.90;;;;;;5078833;28;20131;-66
2022/04/11 04:14:47;;;;;;;8.15;4.57;;;2.20;99.90;;;;;;5095935;28;20051;-66
2022/04/11 04:17:14;;;;;;;10.63;4.13;;;2.20;99.90;;;;;;5078140;28;20445;-66
2022/04/11 04:19:41;;;;;;;9.35;3.78;;;2.30;99.90;;;;;;5078364;28;20131;-67
2022/04/11 04:22:08;;;;;;;10.02;3.70;;;2.30;99.90;;;;;;5077322;28;20040;-67
2022/04/11 04:24:36;;;;;;;9.55;3.78;;;2.40;99.90;;;;;;5095758;28;20087;-67
2022/04/11 04:27:04;;;;;;;6.30;3.38;;;2.40;99.90;;;;;;5095497;28;20048;-67
2022/04/11 04:29:30;;;;;;;6.28;4.05;;;2.40;99.90;;;;;;5095276;28;20056;-66
2022/04/11 04:31:58;;;;;;;7.05;3.88;;;2.50;99.90;;;;;;5096421;28;20079;-66
2022/04/11 04:34:26;;;;;;;7.45;3.72;;;2.60;99.90;;;;;;5095671;28;20484;-66
2022/04/11 04:36:53;;;;;;;7.57;4.03;;;2.60;99.90;;;;;;5095231;28;20052;-67
2022/04/11 04:39:20;;;;;;;9.85;4.25;;;2.70;99.90;;;;;;5077780;28;20138;-67
2022/04/11 04:41:47;;;;;;;7.57;4.03;;;2.70;99.90;;;;;;5077434;28;20134;-67
2022/04/11 04:44:14;;;;;;;6.95;3.50;;;2.80;99.90;;;;;;5095169;28;20119;-67
2022/04/11 04:46:41;;;;;;;8.80;3.83;;;2.80;99.90;;;;;;5077387;28;20086;-68
2022/04/11 04:49:09;;;;;;;7.47;3.80;;;2.80;99.90;;;;;;5077586;28;20139;-68
2022/04/11 04:51:36;;;;;;;10.68;3.90;;;2.90;99.90;;;;;;5077009;28;20134;-67
2022/04/11 04:54:03;;;;;;;7.18;3.80;;;2.90;99.90;;;;;;5076858;28;20112;-68
2022/04/11 04:56:31;;;;;;;6.75;3.53;;;2.90;99.90;;;;;;5076946;28;20135;-67
2022/04/11 04:58:58;;;;;;;7.85;3.25;;;2.90;99.90;;;;;;5077309;28;20059;-67
2022/04/11 05:01:24;;;;;;;5.85;3.47;;;3.00;99.90;;;;;;5077126;28;20134;-67
2022/04/11 05:03:51;;;;;;;4.85;2.70;;;3.00;99.90;;;;;;5094800;28;20084;-67
2022/04/11 05:06:20;;;;;;;8.18;3.22;;;3.00;99.90;;;;;;5095147;28;20048;-65
2022/04/11 05:08:47;;;;;;;4.90;3.08;;;3.10;99.90;;;;;;5057787;28;20053;-66
2022/04/11 05:11:14;;;;;;;9.55;3.28;;;3.20;99.90;;;;;;5076379;28;20132;-66
2022/04/11 05:13:42;;;;;;;8.27;3.17;;;3.20;99.90;;;;;;5073299;28;20040;-66
2022/04/11 05:16:09;;;;;;;5.80;2.97;;;3.20;99.90;;;;;;5065743;28;20059;-66
2022/04/11 05:18:36;;;;;;;8.98;3.85;;;3.30;99.90;;;;;;5085001;28;20097;-66
2022/04/11 05:21:03;;;;;;;5.88;3.03;;;3.40;99.90;;;;;;5070591;28;20534;-65
2022/04/11 05:23:31;;;;;;;7.70;3.45;;;3.40;99.90;;;;;;5064585;28;20121;-65
2022/04/11 05:25:57;;;;;;;6.28;2.70;;;3.50;99.90;;;;;;5070426;28;20136;-66
2022/04/11 05:28:24;;;;;;;7.20;3.08;;;3.50;99.90;;;;;;5086563;28;20056;-66
2022/04/11 05:30:51;;;;;;;7.72;3.67;;;3.60;99.90;;;;;;5087162;28;20044;-66
2022/04/11 05:33:18;;;;;;;5.30;3.10;;;3.60;99.90;;;;;;5086550;28;20048;-65
2022/04/11 05:35:45;;;;;;;5.82;2.85;;;3.80;99.90;;;;;;5090980;28;20080;-65
2022/04/11 05:38:11;;;;;;;5.85;2.75;;;3.80;99.90;;;;;;5088189;28;20463;-65
2022/04/11 05:40:39;;;;;;;6.53;3.58;;;3.80;99.90;;;;;;5064753;28;20591;-66
2022/04/11 05:43:08;;;;;;;6.32;3.63;;;3.80;99.90;;;;;;5082148;28;20068;-66
2022/04/11 05:45:35;;;;;;;4.75;3.10;;;3.90;99.90;;;;;;5067722;28;20113;-66
2022/04/11 05:48:02;;;;;;;6.63;3.63;;;3.90;99.90;;;;;;5068245;28;20079;-65
2022/04/11 05:50:29;;;;;;;5.90;3.25;;;4.00;99.90;;;;;;5064656;28;20048;-66
2022/04/11 05:52:56;;;;;;;7.70;4.30;;;4.10;99.90;;;;;;5087386;28;20127;-65
2022/04/11 05:55:23;;;;;;;10.23;3.80;;;4.10;99.90;;;;;;5083550;28;20524;-66
2022/04/11 05:57:51;;;;;;;8.10;3.85;;;4.10;99.90;;;;;;5064801;28;20052;-65
2022/04/11 06:00:18;;;;;;;8.32;4.20;;;4.20;99.90;;;;;;5069210;28;20492;-66
2022/04/11 06:02:45;;;;;;;6.57;3.55;;;4.20;99.90;;;;;;5067446;28;20102;-66
2022/04/11 06:05:12;;;;;;;7.70;3.53;;;4.20;99.90;;;;;;5065011;28;20501;-66
2022/04/11 06:07:39;;;;;;;6.57;3.95;;;4.20;99.90;;;;;;5070175;28;20139;-66
2022/04/11 06:10:08;;;;;;;7.22;3.47;;;4.30;99.90;;;;;;5068793;28;20131;-66
2022/04/11 06:12:35;;;;;;;6.72;2.90;;;4.30;99.90;;;;;;5070523;28;20056;-66
2022/04/11 06:15:04;;;;;;;5.65;3.10;;;4.40;99.90;;;;;;5072093;28;20139;-66
2022/04/11 06:17:31;;;;;;;8.52;3.40;;;4.40;99.90;;;;;;5067546;28;20093;-66
2022/04/11 06:20:00;;;;;;;8.85;2.70;;;4.50;99.90;;;;;;5072565;28;20048;-66
2022/04/11 06:22:27;;;;;;;5.22;2.80;;;4.50;99.90;;;;;;5072341;28;20136;-66
2022/04/11 06:25:00;;;;;;;5.40;3.28;;;4.60;99.90;;;;;;5072282;28;20123;-66
2022/04/11 06:27:27;;;;;;;5.35;3.72;;;4.60;99.90;;;;;;5072250;28;20036;-66
2022/04/11 06:29:56;;;;;;;6.60;3.13;;;4.70;99.90;;;;;;5067387;28;20092;-67
2022/04/11 06:32:27;;;;;;;4.53;2.70;;;4.70;99.90;;;;;;5059917;28;20039;-66
2022/04/11 06:34:54;;;;;;;4.43;3.28;;;4.80;99.90;;;;;;5061678;28;20045;-66
2022/04/11 06:37:21;;;;;;;7.10;3.58;;;4.90;99.90;;;;;;5056413;28;20148;-66
2022/04/11 06:39:48;;;;;;;5.85;3.60;;;5.00;99.90;;;;;;5070383;28;20075;-65
2022/04/11 06:42:15;;;;;;;5.65;2.95;;;5.00;99.90;;;;;;5057693;28;20128;-66
2022/04/11 06:44:41;;;;;;;4.07;2.45;;;5.10;99.90;;;;;;5077425;28;20048;-66
2022/04/11 06:47:09;;;;;;;6.03;2.13;;;5.20;99.90;;;;;;5072276;28;20092;-66
2022/04/11 06:49:37;;;;;;;4.80;2.88;;;5.30;99.90;;;;;;5074436;28;20052;-66
2022/04/11 06:52:05;;;;;;;6.65;2.85;;;5.40;99.90;;;;;;5070654;28;20588;-66
2022/04/11 06:54:32;;;;;;;8.70;2.78;;;5.50;99.90;;;;;;5055230;28;20135;-66
2022/04/11 06:56:59;;;;;;;8.27;2.53;;;5.70;99.90;;;;;;5053702;28;20074;-66
2022/04/11 06:59:26;;;;;;;5.38;2.70;;;5.90;99.90;;;;;;5058119;28;20757;-66
2022/04/11 07:01:53;;;;;;;6.88;3.75;;;6.10;99.90;;;;;;5071230;28;20044;-68
2022/04/11 07:04:20;;;;;;;4.43;2.22;;;6.20;99.90;;;;;;5064506;28;20084;-66
2022/04/11 07:06:48;;;;;;;6.50;2.95;;;6.40;99.90;;;;;;5070252;28;20135;-66
2022/04/11 07:09:15;;;;;;;5.85;2.35;;;6.50;99.90;;;;;;5079508;28;20643;-67
2022/04/11 07:11:42;;;;;;;5.50;2.70;;;6.70;99.90;;;;;;5052719;28;20479;-67
2022/04/11 07:14:10;;;;;;;10.80;3.00;;;6.80;99.90;;;;;;5069778;28;20134;-67
2022/04/11 07:16:37;;;;;;;5.30;2.50;;;6.90;99.90;;;;;;5056083;28;20052;-66
2022/04/11 07:19:03;;;;;;;8.05;3.35;;;7.10;99.90;;;;;;5076067;28;20052;-67
2022/04/11 07:21:30;;;;;;;5.70;2.42;;;7.20;99.90;;;;;;5080585;28;20063;-67
2022/04/11 07:23:59;;;;;;;5.05;2.28;;;7.40;99.90;;;;;;5057469;28;20554;-67
2022/04/11 07:26:26;;;;;;;6.15;2.53;;;7.50;99.90;;;;;;5056537;28;20412;-67
2022/04/11 07:28:52;;;;;;;4.57;2.30;;;7.70;99.90;;;;;;5057378;28;20052;-67
2022/04/11 07:31:19;;;;;;;4.80;2.60;;;7.90;99.90;;;;;;5052722;28;20074;-67
2022/04/11 07:33:49;;;;;;;7.97;2.38;;;8.10;99.90;;;;;;5065819;28;20468;-67
2022/04/11 07:36:16;;;;;;;5.32;2.15;;;8.70;99.90;;;;;;5068486;28;20046;-67
2022/04/11 07:38:43;;;;;;;6.53;2.75;;;8.60;99.90;;;;;;5079065;28;20096;-67
2022/04/11 07:41:11;;;;;;;4.88;2.05;;;8.80;99.90;;;;;;5079296;28;20479;-67
2022/04/11 07:43:38;;;;;;;7.07;2.10;;;9.00;99.90;;;;;;5075074;28;20065;-67
2022/04/11 07:46:06;;;;;;;4.50;1.85;;;9.30;99.90;;;;;;5073910;28;20127;-67
2022/04/11 07:48:32;;;;;;;4.15;1.88;;;9.50;99.90;;;;;;5056639;28;20059;-67
2022/04/11 07:50:59;;;;;;;4.10;1.83;;;9.70;99.90;;;;;;5057391;28;20052;-67
2022/04/11 07:53:27;;;;;;;5.90;1.98;;;9.90;99.90;;;;;;5073917;28;20044;-67
2022/04/11 07:55:54;;;;;;;4.72;1.55;;;9.90;99.90;;;;;;5076988;28;20504;-67
2022/04/11 07:58:22;;;;;;;3.65;1.75;;;10.00;99.90;;;;;;5070047;28;20511;-68
2022/04/11 08:00:51;;;;;;;3.15;1.65;;;10.20;99.90;;;;;;5056589;28;20131;-67
2022/04/11 08:03:18;;;;;;;2.88;1.40;;;10.40;99.90;;;;;;5060052;28;21305;-68
2022/04/11 08:05:45;;;;;;;3.95;1.58;;;10.60;99.90;;;;;;5072161;28;20075;-68
2022/04/11 08:08:12;;;;;;;3.58;1.40;;;11.00;99.90;;;;;;5059172;28;20048;-68
2022/04/11 08:10:38;;;;;;;5.45;1.60;;;11.30;99.90;;;;;;5074616;28;20088;-68
2022/04/11 08:13:05;;;;;;;6.35;1.80;;;11.60;99.30;;;;;;5074707;28;20480;-68
2022/04/11 08:15:34;;;;;;;3.60;1.67;;;11.70;96.10;;;;;;5055556;28;20083;-68
2022/04/11 08:18:01;;;;;;;5.50;2.03;;;12.10;97.50;;;;;;5068897;28;20473;-68
2022/04/11 08:20:28;;;;;;;2.60;1.25;;;12.40;97.10;;;;;;5070743;28;20052;-68
2022/04/11 08:22:55;;;;;;;5.85;1.85;;;13.10;96.80;;;;;;5057257;28;20059;-68
2022/04/11 08:25:22;;;;;;;4.10;1.63;;;13.60;94.20;;;;;;5060563;28;20439;-68
2022/04/11 08:27:49;;;;;;;3.63;1.60;;;14.40;93.60;;;;;;5073220;28;20080;-69
2022/04/11 08:30:16;;;;;;;5.32;1.50;;;14.40;90.30;;;;;;5069669;28;20084;-69
2022/04/11 08:32:46;;;;;;;4.43;1.50;;;14.60;90.60;;;;;;5076812;28;20381;-68
2022/04/11 08:35:15;;;;;;;5.43;1.52;;;14.60;87.90;;;;;;5055191;28;20055;-68
2022/04/11 08:37:42;;;;;;;4.38;1.63;;;14.50;86.70;;;;;;5073865;28;20076;-68
2022/04/11 08:40:11;;;;;;;3.72;1.63;;;14.40;85.50;;;;;;5057670;28;20540;-68
2022/04/11 08:42:39;;;;;;;3.75;1.67;;;14.80;85.40;;;;;;5083075;28;20056;-68
2022/04/11 08:45:07;;;;;;;4.70;1.92;;;15.50;85.70;;;;;;5056071;28;20131;-68
2022/04/11 08:47:33;;;;;;;5.70;1.70;;;16.30;85.30;;;;;;5055055;28;20136;-69
2022/04/11 08:50:04;;;;;;;3.83;2.00;;;17.10;83.40;;;;;;5063026;28;20174;-69
2022/04/11 08:52:31;;;;;;;4.47;1.95;;;17.90;80.10;;;;;;5055246;28;20083;-69
2022/04/11 08:54:58;;;;;;;6.85;1.90;;;18.10;79.20;;;;;;5057858;28;20167;-69
2022/04/11 08:57:25;;;;;;;3.33;1.27;;;18.20;76.50;;;;;;5074828;28;20095;-71
2022/04/11 08:59:52;;;;;;;5.07;1.52;;;18.10;74.60;;;;;;5057705;28;20083;-69
2022/04/11 09:02:19;;;;;;;7.35;1.83;;;18.30;74.60;;;;;;5078641;28;20049;-69
2022/04/11 09:04:50;;;;;;;5.88;1.70;;;18.70;72.60;;;;;;5059679;28;20128;-69
2022/04/11 09:07:18;;;;;;;4.65;1.23;;;18.80;67.40;;;;;;5055101;28;20053;-69
2022/04/11 09:09:45;;;;;;;4.53;1.30;;;18.80;68.30;;;;;;5091633;28;20074;-69
2022/04/11 09:12:14;;;;;;;3.30;1.85;;;19.10;67.50;;;;;;5074616;28;20090;-69
2022/04/11 09:14:41;;;;;;;4.35;1.38;;;19.20;66.10;;;;;;5056178;28;20531;-69
2022/04/11 09:17:09;;;;;;;4.40;1.38;;;19.50;65.00;;;;;;5072545;28;20156;-70
2022/04/11 09:19:38;;;;;;;3.10;1.17;;;20.00;64.30;;;;;;5055219;28;20575;-70
2022/04/11 09:22:05;;;;;;;5.43;1.30;;;20.50;63.00;;;;;;5057382;28;20480;-70
2022/04/11 09:24:34;;;;;;;4.38;1.40;;;20.90;60.80;;;;;;5073886;28;20302;-70
2022/04/11 09:27:01;;;;;;;4.57;1.25;;;21.40;58.80;;;;;;5078756;28;20052;-71
2022/04/11 09:29:32;;;;;;;3.55;1.23;;;22.10;57.80;;;;;;5059174;28;20079;-70
2022/04/11 09:32:05;;;;;;;3.53;1.00;;;21.20;54.40;;;;;;5066832;28;20129;-70
2022/04/11 09:34:32;;;;;;;4.45;1.30;;;21.20;52.90;;;;;;5088389;28;20123;-70
2022/04/11 09:37:02;;;;;;;3.78;1.40;;;21.60;55.60;;;;;;5070237;28;20052;-70
2022/04/11 09:39:29;;;;;;;;;;;21.70;54.60;;;;;;5073574;28;20080;-70
2022/04/11 09:41:58;;;;;;;4.78;1.42;;;21.60;49.70;;;;;;5077452;28;19966;-70
2022/04/11 09:44:26;;;;;;;4.15;1.10;;;21.80;53.20;;;;;;5086881;28;20404;-70
2022/04/11 09:46:54;;;;;;;4.60;1.15;;;21.70;54.10;;;;;;5056217;28;20472;-70
2022/04/11 09:49:22;;;;;;;2.65;1.00;;;22.20;53.10;;;;;;5054742;28;20136;-70
2022/04/11 09:52:07;;;;;;;5.22;1.48;;;21.70;52.30;;;;;;5058104;28;20131;-70
2022/04/11 09:54:36;;;;;;;3.42;1.25;;;21.80;49.80;;;;;;5073032;28;20071;-70
2022/04/11 09:57:06;;;;;;;2.63;1.20;;;22.00;51.50;;;;;;5056624;28;20067;-70
2022/04/11 09:59:34;;;;;;;2.88;1.30;;;22.60;51.10;;;;;;5054210;28;20136;-70
2022/04/11 10:02:01;;;;;;;4.70;1.50;;;22.90;50.90;;;;;;5072490;28;20132;-70
2022/04/11 10:04:28;;;;;;;4.38;1.35;;;23.10;49.60;;;;;;5071049;28;20127;-70
2022/04/11 10:06:56;;;;;;;5.55;2.10;;;22.70;49.40;;;;;;5058464;28;20135;-70
2022/04/11 10:09:24;;;;;;;4.10;1.20;;;22.60;49.50;;;;;;5073682;28;20107;-70
2022/04/11 10:11:52;;;;;;;2.58;1.20;;;23.10;49.30;;;;;;5059440;28;20048;-70
2022/04/11 10:14:26;;;;;;;2.55;1.10;;;22.60;48.40;;;;;;5058360;28;20496;-69
2022/04/11 10:16:55;;;;;;;3.85;1.25;;;22.90;47.70;;;;;;5061855;28;20060;-70
2022/04/11 10:19:27;;;;;;;6.07;1.73;;;23.20;48.80;;;;;;5062417;28;20048;-69
2022/04/11 10:21:58;;;;;;;4.22;1.60;;;23.30;48.00;;;;;;5062671;28;20048;-70
2022/04/11 10:24:33;;;;;;;4.22;1.73;;;22.90;48.30;;;;;;5054247;28;20154;-70
2022/04/11 10:27:19;;;;;;;3.78;1.20;;;22.80;47.40;;;;;;5069743;27;20414;-70
2022/04/11 10:29:48;;;;;;;3.42;1.58;;;22.80;47.90;;;;;;5067579;28;20449;-70
2022/04/11 10:32:17;;;;;;;3.65;1.48;;;23.10;48.70;;;;;;5068329;28;20059;-70
2022/04/11 10:34:48;;;;;;;2.67;1.40;;;23.30;49.00;;;;;;5066561;28;20052;-70
2022/04/11 10:37:16;;;;;;;4.57;1.55;;;22.70;48.40;;;;;;5066427;28;20527;-70
2022/04/11 10:39:44;;;;;;;4.10;1.83;;;22.80;48.90;;;;;;5069089;28;20098;-70
2022/04/11 10:42:24;;;;;;;3.10;1.55;;;23.30;48.80;;;;;;5066251;28;20052;-70
2022/04/11 10:44:53;;;;;;;3.78;1.60;;;23.70;46.90;;;;;;5068078;28;20074;-70
2022/04/11 10:47:34;;;;;;;4.45;1.60;;;23.70;47.40;;;;;;5066543;28;20487;-71
2022/04/11 10:50:35;;;;;;;3.20;1.50;;;23.20;47.10;;;;;;5067357;28;20048;-70
2022/04/11 10:53:10;;;;;;;3.58;1.73;;;23.20;46.40;;;;;;5066518;28;20523;-70
2022/04/11 10:55:53;;;;;;;4.78;1.80;;;23.50;47.00;;;;;;5066463;28;20036;-70
2022/04/11 10:58:23;;;;;;;4.00;1.98;;;23.40;47.10;;;;;;5066363;28;20044;-71
2022/04/11 11:00:51;;;;;;;4.53;1.63;;;22.50;47.60;;;;;;5066461;28;20040;-70
2022/04/11 11:03:17;;;;;;;3.58;1.73;;;22.90;47.20;;;;;;5048202;28;20049;-70
2022/04/11 11:05:48;;;;;;;5.82;1.75;;;23.30;47.70;;;;;;5066928;28;20503;-70
2022/04/11 11:08:35;;;;;;;4.35;1.90;;;23.30;47.50;;;;;;5067679;28;20060;-71
2022/04/11 11:11:20;;;;;;;5.03;1.80;;;23.40;46.70;;;;;;5060788;28;20052;-70
2022/04/11 11:13:48;;;;;;;5.28;2.28;;;23.70;46.40;;;;;;5065404;28;20051;-70
2022/04/11 11:16:37;;;;;;;3.47;1.75;;;23.20;47.10;;;;;;5066013;28;20136;-70
2022/04/11 11:19:13;;;;;;;4.65;1.83;;;23.70;47.30;;;;;;5066099;28;20061;-71
2022/04/11 11:22:03;;;;;;;3.47;1.90;;;23.20;47.10;;;;;;5066911;28;20060;-70
2022/04/11 11:24:31;;;;;;;4.20;2.20;;;23.10;46.10;;;;;;5065266;28;20057;-71
2022/04/11 11:27:03;;;;;;;4.50;1.63;;;22.50;47.80;;;;;;5065240;28;20560;-71
2022/04/11 11:29:33;;;;;;;3.30;1.75;;;23.10;48.80;;;;;;5066440;28;20136;-70
2022/04/11 11:32:01;;;;;;;3.20;1.90;;;23.40;48.80;;;;;;5064721;28;20523;-70
2022/04/11 11:34:30;;;;;;;4.22;1.80;;;23.00;48.50;;;;;;5065628;28;20572;-70
2022/04/11 11:37:01;;;;;;;4.90;1.70;;;23.70;48.90;;;;;;5061048;28;20049;-71
2022/04/11 11:39:29;;;;;;;5.25;2.00;;;23.20;48.40;;;;;;5052543;28;20537;-71
2022/04/11 11:42:00;;;;;;;5.00;2.30;;;23.60;47.90;;;;;;5051599;28;20057;-71
2022/04/11 11:44:28;;;;;;;4.82;2.28;;;22.80;47.70;;;;;;5052312;28;20132;-70
2022/04/11 11:46:58;;;;;;;3.15;1.75;;;23.40;47.80;;;;;;5051294;28;20140;-70
2022/04/11 11:49:26;;;;;;;4.20;2.25;;;23.20;48.80;;;;;;5053713;28;20103;-70
2022/04/11 11:51:54;;;;;;;4.68;2.10;;;23.30;48.40;;;;;;5051132;28;20943;-70
2022/04/11 11:54:37;;;;;;;3.78;1.90;;;23.40;47.70;;;;;;5052093;28;20080;-70
2022/04/11 11:57:12;;;;;;;4.88;2.45;;;23.40;48.00;;;;;;5050080;28;20136;-70
2022/04/11 11:59:47;;;;;;;4.28;2.25;;;23.60;47.80;;;;;;5053770;28;20056;-70
2022/04/11 12:05:00;;;;;;;5.00;2.20;;;23.70;47.40;;;;;;5051537;28;20063;-70
2022/04/11 12:07:28;;;;;;;4.57;2.17;;;23.20;48.70;;;;;;5050882;28;20069;-70
2022/04/11 12:09:56;;;;;;;3.85;1.77;;;23.20;48.40;;;;;;5052278;28;20067;-70
2022/04/11 12:12:23;;;;;;;7.43;2.40;;;23.60;48.00;;;;;;5051765;28;20131;-70
2022/04/11 12:15:00;;;;;;;5.75;2.70;;;23.80;48.00;;;;;;5065641;28;20076;-70
2022/04/11 12:17:32;;;;;;;4.00;2.08;;;23.60;47.20;;;;;;5051425;28;20511;-70
2022/04/11 12:20:11;;;;;;;3.15;2.00;;;22.90;47.00;;;;;;5051123;28;20143;-70
2022/04/11 12:22:38;;;;;;;4.05;1.98;;;22.90;48.40;;;;;;5050579;28;20463;-70
2022/04/11 12:25:24;;;;;;;4.85;2.30;;;22.80;48.50;;;;;;5050957;28;20534;-70
2022/04/11 12:27:52;;;;;;;5.25;2.58;;;22.90;49.40;;;;;;5063527;28;20126;-70
2022/04/11 12:30:19;;;;;;;4.47;2.10;;;22.90;48.10;;;;;;5053016;28;20138;-70
2022/04/11 12:32:47;;;;;;;3.97;2.00;;;23.60;48.00;;;;;;5052734;28;20048;-70
2022/04/11 12:35:16;;;;;;;4.38;2.40;;;24.00;48.20;;;;;;5050737;28;20523;-70
2022/04/11 12:37:48;;;;;;;4.05;2.25;;;24.40;47.40;;;;;;5051196;28;20053;-70
2022/04/11 12:40:16;;;;;;;4.07;2.00;;;24.30;47.50;;;;;;5052836;28;20080;-70
2022/04/11 12:42:42;;;;;;;3.47;2.10;;;24.70;47.60;;;;;;5050987;28;20053;-69
2022/04/11 12:45:12;;;;;;;3.92;2.20;;;24.50;47.40;;;;;;5066624;28;20148;-70
2022/04/11 12:48:02;;;;;;;3.22;2.10;;;24.10;47.30;;;;;;5048575;28;20080;-70
2022/04/11 12:50:29;;;;;;;3.72;1.90;;;24.00;47.10;;;;;;5048274;28;20287;-70
2022/04/11 12:52:56;;;;;;;3.58;1.85;;;24.00;48.00;;;;;;5051298;28;20143;-70
2022/04/11 12:55:27;;;;;;;4.78;2.55;;;24.00;47.40;;;;;;5050455;28;20187;-70
2022/04/11 12:58:06;;;;;;;3.90;1.80;;;24.00;47.40;;;;;;5050876;28;20776;-70
2022/04/11 13:00:34;;;;;;;6.97;2.50;;;24.10;47.50;;;;;;5051349;28;20126;-70
2022/04/11 13:03:03;;;;;;;4.65;2.60;;;23.60;47.30;;;;;;5066974;28;20048;-70